sensor_id;sensor_type;location;lat;lon;timestamp;noise_LAeq;noise_LA_min;noise_LA_max;noise_LA01;noise_LA95
52872;Laerm;40124;52.198;9.902;2023-03-14T00:00:36;41.06;37.70;43.72;;
52872;Laerm;40124;52.198;9.902;2023-03-14T00:03:02;41.16;37.70;43.49;;
52872;Laerm;40124;52.198;9.902;2023-03-14T00:05:29;40.83;37.12;44.35;;
52872;Laerm;40124;52.198;9.902;2023-03-14T00:07:54;70.09;37.52;90.13;;
52872;Laerm;40124;52.198;9.902;2023-03-14T00:10:19;40.52;37.12;44.51;;
52872;Laerm;40124;52.198;9.902;2023-03-14T00:12:45;40.43;36.56;43.24;;
52872;Laerm;40124;52.198;9.902;2023-03-14T00:15:10;40.17;36.34;43.34;;
52872;Laerm;40124;52.198;9.902;2023-03-14T00:17:36;40.01;35.66;44.83;;
52872;Laerm;40124;52.198;9.902;2023-03-14T00:20:02;56.44;37.32;76.97;;
52872;Laerm;40124;52.198;9.902;2023-03-14T00:22:33;64.10;37.32;84.38;;
52872;Laerm;40124;52.198;9.902;2023-03-14T00:24:58;54.80;35.04;75.01;;
52872;Laerm;40124;52.198;9.902;2023-03-14T00:27:23;57.76;35.04;78.25;;
52872;Laerm;40124;52.198;9.902;2023-03-14T00:29:48;53.14;34.69;72.45;;
52872;Laerm;40124;52.198;9.902;2023-03-14T00:32:13;62.68;36.69;82.38;;
52872;Laerm;40124;52.198;9.902;2023-03-14T00:34:39;57.38;36.20;76.94;;
52872;Laerm;40124;52.198;9.902;2023-03-14T00:37:04;40.41;36.45;43.28;;
52872;Laerm;40124;52.198;9.902;2023-03-14T00:39:29;42.11;37.88;45.17;;
52872;Laerm;40124;52.198;9.902;2023-03-14T00:41:55;41.69;37.32;45.14;;
52872;Laerm;40124;52.198;9.902;2023-03-14T00:44:20;41.84;38.47;44.94;;
52872;Laerm;40124;52.198;9.902;2023-03-14T00:46:45;41.90;37.52;48.25;;
52872;Laerm;40124;52.198;9.902;2023-03-14T00:49:10;59.83;38.52;82.53;;
52872;Laerm;40124;52.198;9.902;2023-03-14T00:51:35;57.71;38.95;78.99;;
52872;Laerm;40124;52.198;9.902;2023-03-14T00:54:00;42.50;38.52;45.69;;
52872;Laerm;40124;52.198;9.902;2023-03-14T00:56:26;55.86;37.70;75.49;;
52872;Laerm;40124;52.198;9.902;2023-03-14T00:58:54;67.32;40.13;87.95;;
52872;Laerm;40124;52.198;9.902;2023-03-14T01:01:20;41.32;38.05;50.15;;
52872;Laerm;40124;52.198;9.902;2023-03-14T01:03:46;52.48;39.21;70.90;;
52872;Laerm;40124;52.198;9.902;2023-03-14T01:06:13;56.05;37.70;76.57;;
52872;Laerm;40124;52.198;9.902;2023-03-14T01:08:39;41.58;37.70;45.94;;
52872;Laerm;40124;52.198;9.902;2023-03-14T01:11:05;44.06;38.67;68.67;;
52872;Laerm;40124;52.198;9.902;2023-03-14T01:13:30;42.31;38.67;58.84;;
52872;Laerm;40124;52.198;9.902;2023-03-14T01:16:00;59.40;37.70;81.43;;
52872;Laerm;40124;52.198;9.902;2023-03-14T01:18:25;42.33;37.70;46.07;;
52872;Laerm;40124;52.198;9.902;2023-03-14T01:20:50;58.70;38.05;79.98;;
52872;Laerm;40124;52.198;9.902;2023-03-14T01:23:16;41.55;38.05;46.07;;
52872;Laerm;40124;52.198;9.902;2023-03-14T01:25:41;42.15;38.21;45.97;;
52872;Laerm;40124;52.198;9.902;2023-03-14T01:28:06;43.56;39.08;58.95;;
52872;Laerm;40124;52.198;9.902;2023-03-14T01:30:31;42.02;38.67;51.05;;
52872;Laerm;40124;52.198;9.902;2023-03-14T01:32:56;41.57;37.88;45.80;;
52872;Laerm;40124;52.198;9.902;2023-03-14T01:35:21;55.80;37.52;75.51;;
52872;Laerm;40124;52.198;9.902;2023-03-14T01:37:47;66.44;37.88;86.08;;
52872;Laerm;40124;52.198;9.902;2023-03-14T01:40:12;44.55;38.81;57.38;;
52872;Laerm;40124;52.198;9.902;2023-03-14T01:42:44;42.18;38.81;46.91;;
52872;Laerm;40124;52.198;9.902;2023-03-14T01:47:53;56.64;37.12;78.54;;
52872;Laerm;40124;52.198;9.902;2023-03-14T01:50:18;41.43;37.53;45.14;;
52872;Laerm;40124;52.198;9.902;2023-03-14T01:52:44;62.14;39.21;83.12;;
52872;Laerm;40124;52.198;9.902;2023-03-14T01:55:18;41.86;36.91;48.84;;
52872;Laerm;40124;52.198;9.902;2023-03-14T01:57:59;57.52;37.12;77.99;;
52872;Laerm;40124;52.198;9.902;2023-03-14T02:00:26;56.11;39.08;76.31;;
52872;Laerm;40124;52.198;9.902;2023-03-14T02:02:52;55.33;40.62;75.97;;
52872;Laerm;40124;52.198;9.902;2023-03-14T02:05:19;55.65;40.62;76.55;;
52872;Laerm;40124;52.198;9.902;2023-03-14T02:07:49;42.86;39.92;46.64;;
52872;Laerm;40124;52.198;9.902;2023-03-14T02:10:15;41.05;36.91;43.94;;
52872;Laerm;40124;52.198;9.902;2023-03-14T02:12:43;42.51;38.05;47.90;;
52872;Laerm;40124;52.198;9.902;2023-03-14T02:15:09;41.68;37.70;45.63;;
52872;Laerm;40124;52.198;9.902;2023-03-14T02:17:34;58.21;37.32;80.22;;
52872;Laerm;40124;52.198;9.902;2023-03-14T02:22:32;41.34;35.66;45.20;;
52872;Laerm;40124;52.198;9.902;2023-03-14T02:25:07;41.58;36.20;67.80;;
52872;Laerm;40124;52.198;9.902;2023-03-14T02:27:33;62.05;38.21;80.89;;
52872;Laerm;40124;52.198;9.902;2023-03-14T02:30:00;56.99;39.35;76.63;;
52872;Laerm;40124;52.198;9.902;2023-03-14T02:32:26;44.36;39.21;54.83;;
52872;Laerm;40124;52.198;9.902;2023-03-14T02:34:59;41.67;38.05;46.57;;
52872;Laerm;40124;52.198;9.902;2023-03-14T02:40:19;42.36;37.12;47.02;;
52872;Laerm;40124;52.198;9.902;2023-03-14T02:42:44;57.96;38.95;79.49;;
52872;Laerm;40124;52.198;9.902;2023-03-14T02:47:36;51.76;38.21;74.55;;
52872;Laerm;40124;52.198;9.902;2023-03-14T02:50:05;60.63;38.52;81.63;;
52872;Laerm;40124;52.198;9.902;2023-03-14T02:52:31;62.63;38.05;81.54;;
52872;Laerm;40124;52.198;9.902;2023-03-14T02:54:56;53.72;39.08;72.64;;
52872;Laerm;40124;52.198;9.902;2023-03-14T02:57:21;58.71;39.34;79.68;;
52872;Laerm;40124;52.198;9.902;2023-03-14T02:59:46;57.66;40.33;79.16;;
52872;Laerm;40124;52.198;9.902;2023-03-14T03:02:12;42.69;40.23;48.25;;
52872;Laerm;40124;52.198;9.902;2023-03-14T03:04:37;42.35;39.34;45.14;;
52872;Laerm;40124;52.198;9.902;2023-03-14T03:07:02;61.25;39.81;80.45;;
52872;Laerm;40124;52.198;9.902;2023-03-14T03:09:27;42.22;38.67;47.02;;
52872;Laerm;40124;52.198;9.902;2023-03-14T03:11:52;60.83;38.95;79.27;;
52872;Laerm;40124;52.198;9.902;2023-03-14T03:14:17;42.04;38.21;46.18;;
52872;Laerm;40124;52.198;9.902;2023-03-14T03:16:42;42.03;39.21;45.80;;
52872;Laerm;40124;52.198;9.902;2023-03-14T03:19:08;59.80;39.35;78.79;;
52872;Laerm;40124;52.198;9.902;2023-03-14T03:21:33;41.98;39.08;47.08;;
52872;Laerm;40124;52.198;9.902;2023-03-14T03:23:59;57.36;38.37;78.68;;
52872;Laerm;40124;52.198;9.902;2023-03-14T03:26:24;57.92;39.58;78.08;;
52872;Laerm;40124;52.198;9.902;2023-03-14T03:28:50;42.54;38.37;49.84;;
52872;Laerm;40124;52.198;9.902;2023-03-14T03:31:15;42.54;38.81;46.13;;
52872;Laerm;40124;52.198;9.902;2023-03-14T03:33:40;67.88;39.34;86.24;;
52872;Laerm;40124;52.198;9.902;2023-03-14T03:36:06;60.16;37.88;80.66;;
52872;Laerm;40124;52.198;9.902;2023-03-14T03:38:31;67.18;39.81;85.12;;
52872;Laerm;40124;52.198;9.902;2023-03-14T03:40:56;58.26;38.05;78.98;;
52872;Laerm;40124;52.198;9.902;2023-03-14T03:43:21;61.00;39.70;78.77;;
52872;Laerm;40124;52.198;9.902;2023-03-14T03:45:47;66.00;38.52;85.95;;
52872;Laerm;40124;52.198;9.902;2023-03-14T03:48:12;59.09;38.81;80.66;;
52872;Laerm;40124;52.198;9.902;2023-03-14T03:50:37;68.38;41.38;88.55;;
52872;Laerm;40124;52.198;9.902;2023-03-14T03:53:08;63.47;41.38;79.38;;
52872;Laerm;40124;52.198;9.902;2023-03-14T03:55:33;63.70;39.08;81.71;;
52872;Laerm;40124;52.198;9.902;2023-03-14T03:57:58;52.25;42.47;69.21;;
52872;Laerm;40124;52.198;9.902;2023-03-14T04:00:23;48.85;40.80;66.79;;
52872;Laerm;40124;52.198;9.902;2023-03-14T04:02:48;64.44;40.71;79.35;;
52872;Laerm;40124;52.198;9.902;2023-03-14T04:05:14;64.62;42.65;79.80;;
52872;Laerm;40124;52.198;9.902;2023-03-14T04:07:39;56.36;43.19;76.51;;
52872;Laerm;40124;52.198;9.902;2023-03-14T04:10:04;64.93;43.54;80.60;;
52872;Laerm;40124;52.198;9.902;2023-03-14T04:12:29;67.79;46.23;82.51;;
52872;Laerm;40124;52.198;9.902;2023-03-14T04:14:54;63.76;42.88;80.30;;
52872;Laerm;40124;52.198;9.902;2023-03-14T04:17:20;67.15;42.41;81.77;;
52872;Laerm;40124;52.198;9.902;2023-03-14T04:19:45;68.17;41.61;83.83;;
52872;Laerm;40124;52.198;9.902;2023-03-14T04:22:10;70.63;45.51;82.26;;
52872;Laerm;40124;52.198;9.902;2023-03-14T04:24:35;69.51;45.54;84.12;;
52872;Laerm;40124;52.198;9.902;2023-03-14T04:27:00;68.80;43.39;84.71;;
52872;Laerm;40124;52.198;9.902;2023-03-14T04:29:25;72.96;41.53;88.45;;
52872;Laerm;40124;52.198;9.902;2023-03-14T04:31:51;68.46;42.98;81.30;;
52872;Laerm;40124;52.198;9.902;2023-03-14T04:34:16;69.70;44.65;82.04;;
52872;Laerm;40124;52.198;9.902;2023-03-14T04:36:41;70.63;44.31;85.45;;
52872;Laerm;40124;52.198;9.902;2023-03-14T04:39:06;69.16;42.47;81.64;;
52872;Laerm;40124;52.198;9.902;2023-03-14T04:41:31;70.62;42.65;89.47;;
52872;Laerm;40124;52.198;9.902;2023-03-14T04:43:57;71.14;43.86;87.44;;
52872;Laerm;40124;52.198;9.902;2023-03-14T04:46:22;69.36;42.53;82.23;;
52872;Laerm;40124;52.198;9.902;2023-03-14T04:48:47;66.78;41.22;84.77;;
52872;Laerm;40124;52.198;9.902;2023-03-14T04:51:12;70.09;41.75;85.24;;
52872;Laerm;40124;52.198;9.902;2023-03-14T04:53:37;68.96;40.43;84.86;;
52872;Laerm;40124;52.198;9.902;2023-03-14T04:56:02;71.79;46.84;88.45;;
52872;Laerm;40124;52.198;9.902;2023-03-14T04:58:28;69.66;42.47;81.93;;
52872;Laerm;40124;52.198;9.902;2023-03-14T05:00:53;71.56;44.03;85.76;;
52872;Laerm;40124;52.198;9.902;2023-03-14T05:03:18;69.90;43.24;84.30;;
52872;Laerm;40124;52.198;9.902;2023-03-14T05:05:43;70.46;45.17;82.56;;
52872;Laerm;40124;52.198;9.902;2023-03-14T05:08:09;68.09;43.86;81.65;;
52872;Laerm;40124;52.198;9.902;2023-03-14T05:10:34;70.15;45.48;86.29;;
52872;Laerm;40124;52.198;9.902;2023-03-14T05:13:00;68.95;42.59;81.15;;
52872;Laerm;40124;52.198;9.902;2023-03-14T05:15:25;66.83;41.82;82.06;;
52872;Laerm;40124;52.198;9.902;2023-03-14T05:17:50;71.92;44.19;84.64;;
52872;Laerm;40124;52.198;9.902;2023-03-14T05:20:15;70.03;41.22;84.78;;
52872;Laerm;40124;52.198;9.902;2023-03-14T05:22:41;69.45;41.75;81.28;;
52872;Laerm;40124;52.198;9.902;2023-03-14T05:25:06;68.40;43.39;80.75;;
52872;Laerm;40124;52.198;9.902;2023-03-14T05:27:32;71.01;43.63;86.48;;
52872;Laerm;40124;52.198;9.902;2023-03-14T05:29:57;74.14;48.83;86.49;;
52872;Laerm;40124;52.198;9.902;2023-03-14T05:32:23;69.97;47.63;79.86;;
52872;Laerm;40124;52.198;9.902;2023-03-14T05:34:48;71.34;41.96;87.00;;
52872;Laerm;40124;52.198;9.902;2023-03-14T05:37:13;71.77;48.58;85.13;;
52872;Laerm;40124;52.198;9.902;2023-03-14T05:39:38;69.48;43.14;83.40;;
52872;Laerm;40124;52.198;9.902;2023-03-14T05:42:03;73.55;45.91;88.17;;
52872;Laerm;40124;52.198;9.902;2023-03-14T05:44:28;69.52;51.27;81.16;;
52872;Laerm;40124;52.198;9.902;2023-03-14T05:46:54;72.82;48.98;87.95;;
52872;Laerm;40124;52.198;9.902;2023-03-14T05:49:19;71.14;44.80;83.30;;
52872;Laerm;40124;52.198;9.902;2023-03-14T05:51:44;72.30;50.60;86.54;;
52872;Laerm;40124;52.198;9.902;2023-03-14T05:54:09;71.50;43.24;82.01;;
52872;Laerm;40124;52.198;9.902;2023-03-14T05:56:34;69.18;41.30;82.51;;
52872;Laerm;40124;52.198;9.902;2023-03-14T05:58:59;72.24;47.18;83.57;;
52872;Laerm;40124;52.198;9.902;2023-03-14T06:01:27;71.87;44.07;84.42;;
52872;Laerm;40124;52.198;9.902;2023-03-14T06:03:52;73.15;50.27;84.35;;
52872;Laerm;40124;52.198;9.902;2023-03-14T06:06:17;71.74;44.73;84.78;;
52872;Laerm;40124;52.198;9.902;2023-03-14T06:08:42;73.69;54.56;87.73;;
52872;Laerm;40124;52.198;9.902;2023-03-14T06:11:07;73.16;44.11;88.89;;
52872;Laerm;40124;52.198;9.902;2023-03-14T06:13:33;72.46;43.58;85.35;;
52872;Laerm;40124;52.198;9.902;2023-03-14T06:15:58;74.82;53.35;87.88;;
52872;Laerm;40124;52.198;9.902;2023-03-14T06:18:23;72.62;51.05;82.23;;
52872;Laerm;40124;52.198;9.902;2023-03-14T06:20:48;71.81;48.10;81.60;;
52872;Laerm;40124;52.198;9.902;2023-03-14T06:23:13;71.92;51.75;83.95;;
52872;Laerm;40124;52.198;9.902;2023-03-14T06:25:39;72.56;47.34;83.30;;
52872;Laerm;40124;52.198;9.902;2023-03-14T06:28:04;73.30;54.26;85.92;;
52872;Laerm;40124;52.198;9.902;2023-03-14T06:30:29;73.38;51.51;86.50;;
52872;Laerm;40124;52.198;9.902;2023-03-14T06:32:54;72.54;50.76;84.39;;
52872;Laerm;40124;52.198;9.902;2023-03-14T06:35:20;70.41;44.54;83.04;;
52872;Laerm;40124;52.198;9.902;2023-03-14T06:37:45;73.09;52.75;84.96;;
52872;Laerm;40124;52.198;9.902;2023-03-14T06:40:10;71.84;52.89;83.77;;
52872;Laerm;40124;52.198;9.902;2023-03-14T06:42:37;72.59;48.32;88.47;;
52872;Laerm;40124;52.198;9.902;2023-03-14T06:45:02;73.15;56.50;82.94;;
52872;Laerm;40124;52.198;9.902;2023-03-14T06:47:28;71.70;54.94;80.60;;
52872;Laerm;40124;52.198;9.902;2023-03-14T06:49:53;71.76;45.63;84.74;;
52872;Laerm;40124;52.198;9.902;2023-03-14T06:52:18;74.34;48.57;87.94;;
52872;Laerm;40124;52.198;9.902;2023-03-14T06:54:43;74.03;54.86;85.01;;
52872;Laerm;40124;52.198;9.902;2023-03-14T06:57:08;72.25;53.21;87.64;;
52872;Laerm;40124;52.198;9.902;2023-03-14T06:59:33;71.62;47.24;83.15;;
52872;Laerm;40124;52.198;9.902;2023-03-14T07:01:59;71.78;48.10;85.90;;
52872;Laerm;40124;52.198;9.902;2023-03-14T07:04:24;71.65;45.30;84.49;;
52872;Laerm;40124;52.198;9.902;2023-03-14T07:06:49;72.74;51.93;87.98;;
52872;Laerm;40124;52.198;9.902;2023-03-14T07:09:15;76.87;49.64;98.68;;
52872;Laerm;40124;52.198;9.902;2023-03-14T07:11:42;69.33;47.16;80.94;;
52872;Laerm;40124;52.198;9.902;2023-03-14T07:14:07;70.26;47.65;80.51;;
52872;Laerm;40124;52.198;9.902;2023-03-14T07:16:32;72.22;47.74;86.31;;
52872;Laerm;40124;52.198;9.902;2023-03-14T07:18:58;68.32;47.32;80.17;;
52872;Laerm;40124;52.198;9.902;2023-03-14T07:21:23;69.23;44.03;80.55;;
52872;Laerm;40124;52.198;9.902;2023-03-14T07:23:49;71.52;44.43;89.37;;
52872;Laerm;40124;52.198;9.902;2023-03-14T07:26:14;71.60;48.77;85.57;;
52872;Laerm;40124;52.198;9.902;2023-03-14T07:28:39;70.42;50.57;82.22;;
52872;Laerm;40124;52.198;9.902;2023-03-14T07:31:04;70.03;51.35;82.37;;
52872;Laerm;40124;52.198;9.902;2023-03-14T07:33:29;73.51;45.57;92.07;;
52872;Laerm;40124;52.198;9.902;2023-03-14T07:35:55;70.94;49.75;85.03;;
52872;Laerm;40124;52.198;9.902;2023-03-14T07:38:20;67.94;44.51;81.58;;
52872;Laerm;40124;52.198;9.902;2023-03-14T07:40:45;72.22;44.65;88.53;;
52872;Laerm;40124;52.198;9.902;2023-03-14T07:43:10;72.07;50.67;85.33;;
52872;Laerm;40124;52.198;9.902;2023-03-14T07:45:35;71.53;45.80;82.95;;
52872;Laerm;40124;52.198;9.902;2023-03-14T07:48:00;71.77;46.48;86.16;;
52872;Laerm;40124;52.198;9.902;2023-03-14T07:50:27;71.75;49.81;87.79;;
52872;Laerm;40124;52.198;9.902;2023-03-14T07:52:53;69.94;49.46;82.16;;
52872;Laerm;40124;52.198;9.902;2023-03-14T07:55:18;71.70;48.84;88.26;;
52872;Laerm;40124;52.198;9.902;2023-03-14T07:57:43;71.16;47.74;85.57;;
52872;Laerm;40124;52.198;9.902;2023-03-14T08:00:09;70.49;48.96;86.69;;
52872;Laerm;40124;52.198;9.902;2023-03-14T08:02:35;71.60;45.63;87.24;;
52872;Laerm;40124;52.198;9.902;2023-03-14T08:05:01;71.84;47.38;87.44;;
52872;Laerm;40124;52.198;9.902;2023-03-14T08:07:26;70.25;42.76;83.94;;
52872;Laerm;40124;52.198;9.902;2023-03-14T08:09:51;67.57;43.90;81.81;;
52872;Laerm;40124;52.198;9.902;2023-03-14T08:12:16;68.19;43.77;85.50;;
52872;Laerm;40124;52.198;9.902;2023-03-14T08:14:41;71.63;48.13;85.52;;
52872;Laerm;40124;52.198;9.902;2023-03-14T08:17:06;70.52;42.47;84.38;;
52872;Laerm;40124;52.198;9.902;2023-03-14T08:19:33;72.08;44.58;87.69;;
52872;Laerm;40124;52.198;9.902;2023-03-14T08:21:58;73.96;56.66;88.38;;
52872;Laerm;40124;52.198;9.902;2023-03-14T08:24:23;73.40;49.35;88.90;;
52872;Laerm;40124;52.198;9.902;2023-03-14T08:26:48;71.27;52.50;83.58;;
52872;Laerm;40124;52.198;9.902;2023-03-14T08:29:13;69.64;51.59;81.34;;
52872;Laerm;40124;52.198;9.902;2023-03-14T08:31:39;70.39;46.20;86.15;;
52872;Laerm;40124;52.198;9.902;2023-03-14T08:34:04;70.79;47.42;85.24;;
52872;Laerm;40124;52.198;9.902;2023-03-14T08:36:31;70.00;46.78;85.14;;
52872;Laerm;40124;52.198;9.902;2023-03-14T08:38:56;70.22;43.63;82.41;;
52872;Laerm;40124;52.198;9.902;2023-03-14T08:41:23;71.37;49.52;86.86;;
52872;Laerm;40124;52.198;9.902;2023-03-14T08:43:48;72.37;43.44;87.66;;
52872;Laerm;40124;52.198;9.902;2023-03-14T08:46:13;74.69;43.81;96.31;;
52872;Laerm;40124;52.198;9.902;2023-03-14T08:48:39;66.61;46.48;79.19;;
52872;Laerm;40124;52.198;9.902;2023-03-14T08:51:11;72.44;44.90;87.04;;
52872;Laerm;40124;52.198;9.902;2023-03-14T08:53:37;69.81;46.18;87.54;;
52872;Laerm;40124;52.198;9.902;2023-03-14T08:56:03;70.46;49.10;86.53;;
52872;Laerm;40124;52.198;9.902;2023-03-14T08:58:30;70.09;45.33;85.22;;
52872;Laerm;40124;52.198;9.902;2023-03-14T09:00:55;68.91;42.71;84.31;;
52872;Laerm;40124;52.198;9.902;2023-03-14T09:03:21;71.16;43.81;86.27;;
52872;Laerm;40124;52.198;9.902;2023-03-14T09:05:48;69.19;46.80;81.05;;
52872;Laerm;40124;52.198;9.902;2023-03-14T09:08:13;69.93;44.11;82.98;;
52872;Laerm;40124;52.198;9.902;2023-03-14T09:10:38;71.56;43.94;87.96;;
52872;Laerm;40124;52.198;9.902;2023-03-14T09:13:03;69.76;48.03;85.02;;
52872;Laerm;40124;52.198;9.902;2023-03-14T09:15:28;68.06;43.63;80.16;;
52872;Laerm;40124;52.198;9.902;2023-03-14T09:17:53;67.56;43.05;80.49;;
52872;Laerm;40124;52.198;9.902;2023-03-14T09:20:22;69.45;46.56;83.52;;
52872;Laerm;40124;52.198;9.902;2023-03-14T09:22:47;68.70;46.97;80.99;;
52872;Laerm;40124;52.198;9.902;2023-03-14T09:25:12;71.44;45.60;88.69;;
52872;Laerm;40124;52.198;9.902;2023-03-14T09:27:37;71.33;44.39;89.13;;
52872;Laerm;40124;52.198;9.902;2023-03-14T09:30:03;67.19;45.36;80.85;;
52872;Laerm;40124;52.198;9.902;2023-03-14T09:32:29;67.67;46.40;80.76;;
52872;Laerm;40124;52.198;9.902;2023-03-14T09:34:54;71.05;45.97;86.59;;
52872;Laerm;40124;52.198;9.902;2023-03-14T09:37:19;67.14;44.31;82.86;;
52872;Laerm;40124;52.198;9.902;2023-03-14T09:39:45;70.21;48.51;81.35;;
52872;Laerm;40124;52.198;9.902;2023-03-14T09:42:13;69.70;46.10;83.06;;
52872;Laerm;40124;52.198;9.902;2023-03-14T09:44:41;70.83;44.07;86.00;;
52872;Laerm;40124;52.198;9.902;2023-03-14T09:47:10;69.93;46.89;87.11;;
52872;Laerm;40124;52.198;9.902;2023-03-14T09:49:38;69.68;43.90;83.26;;
52872;Laerm;40124;52.198;9.902;2023-03-14T09:54:52;68.48;44.80;83.25;;
52872;Laerm;40124;52.198;9.902;2023-03-14T09:57:18;69.40;43.99;80.11;;
52872;Laerm;40124;52.198;9.902;2023-03-14T09:59:44;67.56;43.04;83.98;;
52872;Laerm;40124;52.198;9.902;2023-03-14T10:02:53;71.69;43.99;87.34;;
52872;Laerm;40124;52.198;9.902;2023-03-14T10:04:58;69.28;44.23;85.74;;
52872;Laerm;40124;52.198;9.902;2023-03-14T10:07:28;67.94;44.62;79.38;;
52872;Laerm;40124;52.198;9.902;2023-03-14T10:09:54;67.66;43.19;80.43;;
52872;Laerm;40124;52.198;9.902;2023-03-14T10:12:19;70.78;47.18;90.79;;
52872;Laerm;40124;52.198;9.902;2023-03-14T10:14:48;67.44;43.94;80.61;;
52872;Laerm;40124;52.198;9.902;2023-03-14T10:17:14;69.81;50.03;88.45;;
52872;Laerm;40124;52.198;9.902;2023-03-14T10:19:51;69.22;46.30;83.92;;
52872;Laerm;40124;52.198;9.902;2023-03-14T10:22:17;67.15;43.58;84.60;;
52872;Laerm;40124;52.198;9.902;2023-03-14T10:24:49;64.61;42.71;78.30;;
52872;Laerm;40124;52.198;9.902;2023-03-14T10:27:18;71.28;48.90;88.19;;
52872;Laerm;40124;52.198;9.902;2023-03-14T10:30:00;71.78;45.94;86.73;;
52872;Laerm;40124;52.198;9.902;2023-03-14T10:32:31;67.32;43.68;77.95;;
52872;Laerm;40124;52.198;9.902;2023-03-14T10:35:05;69.15;46.07;84.71;;
52872;Laerm;40124;52.198;9.902;2023-03-14T10:37:30;71.12;54.20;83.95;;
52872;Laerm;40124;52.198;9.902;2023-03-14T10:39:57;68.23;45.01;82.33;;
52872;Laerm;40124;52.198;9.902;2023-03-14T10:42:24;70.56;46.93;84.38;;
52872;Laerm;40124;52.198;9.902;2023-03-14T10:44:57;70.15;48.18;85.58;;
52872;Laerm;40124;52.198;9.902;2023-03-14T10:47:24;67.66;45.48;81.05;;
52872;Laerm;40124;52.198;9.902;2023-03-14T10:49:50;67.85;46.23;79.85;;
52872;Laerm;40124;52.198;9.902;2023-03-14T10:52:20;69.33;45.01;82.83;;
52872;Laerm;40124;52.198;9.902;2023-03-14T10:54:48;68.58;43.93;85.28;;
52872;Laerm;40124;52.198;9.902;2023-03-14T10:57:13;72.59;44.54;87.96;;
52872;Laerm;40124;52.198;9.902;2023-03-14T10:59:39;71.14;47.52;86.47;;
52872;Laerm;40124;52.198;9.902;2023-03-14T11:15:27;69.30;42.93;85.41;;
52872;Laerm;40124;52.198;9.902;2023-03-14T11:21:12;70.76;44.65;85.35;;
52872;Laerm;40124;52.198;9.902;2023-03-14T11:23:22;68.89;44.83;82.73;;
52872;Laerm;40124;52.198;9.902;2023-03-14T11:28:23;68.96;47.93;82.67;;
52872;Laerm;40124;52.198;9.902;2023-03-14T11:30:52;70.20;45.99;85.06;;
52872;Laerm;40124;52.198;9.902;2023-03-14T11:41:12;71.36;44.58;85.29;;
52872;Laerm;40124;52.198;9.902;2023-03-14T11:43:39;72.49;48.95;90.96;;
52872;Laerm;40124;52.198;9.902;2023-03-14T11:48:43;73.15;57.10;83.51;;
52872;Laerm;40124;52.198;9.902;2023-03-14T11:51:15;72.83;59.14;82.99;;
52872;Laerm;40124;52.198;9.902;2023-03-14T11:53:50;72.60;57.60;84.87;;
52872;Laerm;40124;52.198;9.902;2023-03-14T11:56:27;71.50;53.77;82.87;;
52872;Laerm;40124;52.198;9.902;2023-03-14T11:58:58;73.82;53.19;85.96;;
52872;Laerm;40124;52.198;9.902;2023-03-14T12:01:27;72.81;54.43;82.88;;
52872;Laerm;40124;52.198;9.902;2023-03-14T12:03:56;70.25;48.74;82.26;;
52872;Laerm;40124;52.198;9.902;2023-03-14T12:06:28;70.68;48.81;81.37;;
52872;Laerm;40124;52.198;9.902;2023-03-14T12:08:59;72.15;48.76;86.68;;
52872;Laerm;40124;52.198;9.902;2023-03-14T12:11:43;73.85;52.87;86.92;;
52872;Laerm;40124;52.198;9.902;2023-03-14T12:14:44;71.79;53.28;83.89;;
52872;Laerm;40124;52.198;9.902;2023-03-14T12:17:21;72.52;49.90;84.80;;
52872;Laerm;40124;52.198;9.902;2023-03-14T12:19:47;73.16;52.60;84.17;;
52872;Laerm;40124;52.198;9.902;2023-03-14T12:23:13;72.40;52.94;83.00;;
52872;Laerm;40124;52.198;9.902;2023-03-14T12:27:46;73.00;52.66;83.74;;
52872;Laerm;40124;52.198;9.902;2023-03-14T12:30:45;72.64;52.80;82.74;;
52872;Laerm;40124;52.198;9.902;2023-03-14T12:35:41;71.32;48.66;86.59;;
52872;Laerm;40124;52.198;9.902;2023-03-14T12:38:25;71.81;52.68;86.93;;
52872;Laerm;40124;52.198;9.902;2023-03-14T12:43:38;72.00;51.40;88.30;;
52872;Laerm;40124;52.198;9.902;2023-03-14T12:46:24;76.50;55.21;89.80;;
52872;Laerm;40124;52.198;9.902;2023-03-14T12:48:50;74.54;53.36;90.01;;
52872;Laerm;40124;52.198;9.902;2023-03-14T12:51:28;73.49;54.90;87.85;;
52872;Laerm;40124;52.198;9.902;2023-03-14T12:54:04;75.99;53.63;88.33;;
52872;Laerm;40124;52.198;9.902;2023-03-14T13:04:37;72.84;49.12;85.40;;
52872;Laerm;40124;52.198;9.902;2023-03-14T13:07:10;72.26;47.72;87.10;;
52872;Laerm;40124;52.198;9.902;2023-03-14T13:09:45;77.43;48.48;99.78;;
52872;Laerm;40124;52.198;9.902;2023-03-14T13:12:16;72.59;50.34;87.44;;
52872;Laerm;40124;52.198;9.902;2023-03-14T13:14:49;74.46;54.05;89.44;;
52872;Laerm;40124;52.198;9.902;2023-03-14T13:17:15;72.97;50.58;88.93;;
52872;Laerm;40124;52.198;9.902;2023-03-14T13:19:44;73.58;50.87;87.56;;
52872;Laerm;40124;52.198;9.902;2023-03-14T13:22:18;75.33;47.84;89.41;;
52872;Laerm;40124;52.198;9.902;2023-03-14T13:24:44;72.35;47.52;85.99;;
52872;Laerm;40124;52.198;9.902;2023-03-14T13:27:20;69.46;48.32;83.00;;
52872;Laerm;40124;52.198;9.902;2023-03-14T13:29:48;72.56;54.09;85.08;;
52872;Laerm;40124;52.198;9.902;2023-03-14T13:32:17;70.78;46.30;82.78;;
52872;Laerm;40124;52.198;9.902;2023-03-14T13:34:44;71.10;45.66;82.30;;
52872;Laerm;40124;52.198;9.902;2023-03-14T13:37:19;70.93;49.91;81.79;;
52872;Laerm;40124;52.198;9.902;2023-03-14T13:39:48;71.03;45.72;84.28;;
52872;Laerm;40124;52.198;9.902;2023-03-14T13:42:14;71.50;45.51;87.81;;
52872;Laerm;40124;52.198;9.902;2023-03-14T13:44:40;71.67;50.45;81.25;;
52872;Laerm;40124;52.198;9.902;2023-03-14T13:47:09;71.75;44.39;83.79;;
52872;Laerm;40124;52.198;9.902;2023-03-14T13:49:35;72.22;53.65;82.46;;
52872;Laerm;40124;52.198;9.902;2023-03-14T13:52:02;71.42;46.35;85.80;;
52872;Laerm;40124;52.198;9.902;2023-03-14T13:54:27;71.29;51.79;83.57;;
52872;Laerm;40124;52.198;9.902;2023-03-14T13:57:00;73.52;52.06;86.15;;
52872;Laerm;40124;52.198;9.902;2023-03-14T13:59:29;72.26;53.11;81.61;;
52872;Laerm;40124;52.198;9.902;2023-03-14T14:01:55;72.86;51.94;82.50;;
52872;Laerm;40124;52.198;9.902;2023-03-14T14:04:22;71.55;47.10;81.53;;
52872;Laerm;40124;52.198;9.902;2023-03-14T14:06:57;71.75;51.16;80.54;;
52872;Laerm;40124;52.198;9.902;2023-03-14T14:09:24;72.21;52.54;87.10;;
52872;Laerm;40124;52.198;9.902;2023-03-14T14:11:51;75.24;56.57;88.91;;
52872;Laerm;40124;52.198;9.902;2023-03-14T14:14:32;72.77;51.06;81.77;;
52872;Laerm;40124;52.198;9.902;2023-03-14T14:16:59;71.75;48.46;82.37;;
52872;Laerm;40124;52.198;9.902;2023-03-14T14:19:27;72.28;49.30;85.89;;
52872;Laerm;40124;52.198;9.902;2023-03-14T14:21:53;71.06;51.10;80.80;;
52872;Laerm;40124;52.198;9.902;2023-03-14T14:24:18;74.08;48.31;91.04;;
52872;Laerm;40124;52.198;9.902;2023-03-14T14:26:53;70.69;48.39;82.45;;
52872;Laerm;40124;52.198;9.902;2023-03-14T14:29:28;72.02;51.14;83.39;;
52872;Laerm;40124;52.198;9.902;2023-03-14T14:32:01;73.86;52.48;87.34;;
52872;Laerm;40124;52.198;9.902;2023-03-14T14:34:26;72.44;48.07;83.07;;
52872;Laerm;40124;52.198;9.902;2023-03-14T14:36:52;73.74;50.94;83.42;;
52872;Laerm;40124;52.198;9.902;2023-03-14T14:39:21;72.15;49.39;82.32;;
52872;Laerm;40124;52.198;9.902;2023-03-14T14:41:48;71.68;46.57;83.40;;